Time;durP1;ratioP1;P1;durP2;ratioP2;P2;SDS_P1;SDS_P2;PMS_P1;PMS_P2;Temp;Humidity;BMP_temperature;BMP_pressure;BME280_temperature;BME280_humidity;BME280_pressure;Samples;Min_cycle;Max_cycle;Signal;HPM_P1;HPM_P2
2022/07/15 00:02:13;;;;;;;;;;;;;;;14.40;100.00;4858.22;5018571;28;20157;-80
2022/07/15 00:04:39;;;;;;;;;;;;;;;14.34;100.00;3533.72;4999639;28;19921;-80
2022/07/15 00:07:04;;;;;;;;;;;;;;;14.33;100.00;1879.81;5016362;28;19918;-80
2022/07/15 00:12:13;;;;;;;;;;;;;;;14.40;100.00;227.56;5035466;28;19998;-80
2022/07/15 00:14:39;;;;;;;;;;;;;;;14.30;100.00;556.91;5019568;28;19952;-80
2022/07/15 00:17:06;;;;;;;;;;;;;;;14.33;100.00;-103.69;5037222;28;19913;-80
2022/07/15 00:19:33;;;;;;;;;;;;;;;14.34;100.00;-103.59;5026722;28;19944;-80
2022/07/15 00:21:58;;;;;;;;;;;;;;;14.28;100.00;-1095.66;5016329;28;20408;-80
2022/07/15 00:24:31;;;;;;;;;;;;;;;14.32;100.00;-1755.94;5049873;28;19912;-80
2022/07/15 00:26:57;;;;;;;;;;;;;;;14.34;100.00;-1755.75;5043711;28;19970;-81
2022/07/15 00:29:22;;;;;;;;;;;;;;;14.24;100.00;-765.69;5053926;28;19917;-80
2022/07/15 00:31:47;;;;;;;;;;;;;;;14.21;100.00;-1426.69;5035315;28;19915;-81
2022/07/15 00:34:20;;;;;;;;;;;;;;;14.16;100.00;-2417.94;5019364;28;19917;-81
2022/07/15 00:36:45;;;;;;;;;;;;;;;14.16;100.00;-4068.63;5052114;28;19924;-81
2022/07/15 00:39:11;;;;;;;;;;;;;;;14.03;100.00;-3079.25;5053308;28;19921;-82
2022/07/15 00:41:37;;;;;;;;;;;;;;;14.03;100.00;-4399.34;5029686;28;19917;-80
2022/07/15 00:44:05;;;;;;;;;;;;;;;13.95;100.00;-5059.53;5028086;28;19917;-81
2022/07/15 00:46:30;;;;;;;;;;;;;;;13.93;100.00;-6378.84;5026740;28;19919;-80
2022/07/15 00:48:57;;;;;;;;;;;;;;;14.02;100.00;-7367.97;5039553;28;19960;-81
2022/07/15 00:51:22;;;;;;;;;;;;;;;13.98;100.00;-7697.66;5070154;28;19996;-80
2022/07/15 00:53:48;;;;;;;;;;;;;;;14.00;100.00;-8686.56;5037786;28;19900;-82
2022/07/15 00:56:13;;;;;;;;;;;;;;;13.94;100.00;-8686.44;5055586;28;19908;-80
2022/07/15 00:58:40;;;;;;;;;;;;;;;13.98;100.00;-9675.13;5075038;28;19920;-81
2022/07/15 01:01:07;;;;;;;;;;;;;;;14.00;100.00;-10004.72;5075469;28;19912;-81
2022/07/15 01:03:39;;;;;;;;;;;;;;;13.91;100.00;-10663.16;5056631;28;19920;-82
2022/07/15 01:06:04;;;;;;;;;;;;;;;13.91;100.00;-12309.66;5055858;28;20218;-82
2022/07/15 01:08:30;;;;;;;;;;;;;;;13.92;100.00;-13626.50;5044967;28;19912;-81
2022/07/15 01:10:55;;;;;;;;;;;;;;;13.85;100.00;-14612.94;5045501;28;19917;-82
2022/07/15 01:13:21;;;;;;;;;;;;;;;13.86;100.00;-15928.84;5067422;28;19928;-82
2022/07/15 01:15:46;;;;;;;;;;;;;;;13.89;100.00;-16915.88;5033397;28;19927;-81
2022/07/15 01:18:11;;;;;;;;;;;;;;;13.82;100.00;-16586.00;5042477;28;20266;-82
2022/07/15 01:20:46;;;;;;;;;;;;;;;13.83;100.00;-16586.22;5041617;28;19901;-81
2022/07/15 01:23:12;;;;;;;;;;;;;;;13.88;100.00;-16586.88;5047450;28;20407;-82
2022/07/15 01:25:39;;;;;;;;;;;;;;;13.94;100.00;-16258.88;5028891;28;19936;-81
2022/07/15 01:28:05;;;;;;;;;;;;;;;13.89;100.00;-15929.28;5043661;28;19920;-81
2022/07/15 01:30:30;;;;;;;;;;;;;;;13.79;100.00;-16256.75;5050857;28;19964;-81
2022/07/15 01:32:55;;;;;;;;;;;;;;;13.85;100.00;-16586.38;5050350;28;19904;-82
2022/07/15 01:35:21;;;;;;;;;;;;;;;13.79;100.00;-16914.34;5037453;28;19921;-81
2022/07/15 01:37:46;;;;;;;;;;;;;;;13.70;100.00;-17570.44;5043655;28;19960;-82
2022/07/15 01:40:11;;;;;;;;;;;;;;;13.61;100.00;-18554.72;5051296;28;19917;-81
2022/07/15 01:42:37;;;;;;;;;;;;;;;13.64;100.00;-19540.78;5041967;28;19941;-82
2022/07/15 01:45:03;;;;;;;;;;;;;;;13.65;100.00;-20197.97;5040373;28;19976;-81
2022/07/15 01:47:29;;;;;;;;;;;;;;;13.61;100.00;-20525.53;5054065;28;19921;-81
2022/07/15 01:49:54;;;;;;;;;;;;;;;13.59;100.00;-21181.78;5033934;28;19917;-80
2022/07/15 01:52:19;;;;;;;;;;;;;;;13.58;100.00;-21838.09;5048269;28;19956;-81
2022/07/15 01:54:59;;;;;;;;;;;;;;;13.61;100.00;-22823.44;5014890;28;19918;-79
2022/07/15 01:57:24;;;;;;;;;;;;;;;13.60;100.00;-23807.44;5048186;28;19967;-80
2022/07/15 01:59:49;;;;;;;;;;;;;;;13.63;100.00;-25120.53;5016034;28;19914;-80
2022/07/15 02:02:15;;;;;;;;;;;;;;;13.57;100.00;-25446.75;5015898;28;19917;-80
2022/07/15 02:04:42;;;;;;;;;;;;;;;13.50;100.00;-25446.66;5015473;28;19913;-80
2022/07/15 02:07:08;;;;;;;;;;;;;;;13.52;100.00;-25447.09;5030396;28;19999;-80
2022/07/15 02:09:33;;;;;;;;;;;;;;;13.43;100.00;-25444.59;5019001;28;19998;-80
2022/07/15 02:11:59;;;;;;;;;;;;;;;13.37;100.00;-25442.84;5048254;28;20364;-83
2022/07/15 02:14:25;;;;;;;;;;;;;;;13.39;100.00;-25443.44;5052130;28;19987;-80
2022/07/15 02:16:50;;;;;;;;;;;;;;;13.43;100.00;-25444.59;5036022;28;19925;-80
2022/07/15 02:19:15;;;;;;;;;;;;;;;13.41;100.00;-25444.03;5035885;28;19920;-81
2022/07/15 02:21:41;;;;;;;;;;;;;;;13.40;100.00;-25443.72;5023354;28;20452;-80
2022/07/15 02:24:08;;;;;;;;;;;;;;;13.28;100.00;-25440.34;5029845;28;19970;-81
2022/07/15 02:26:33;;;;;;;;;;;;;;;13.33;100.00;-25441.69;5017648;28;20618;-82
2022/07/15 02:28:59;;;;;;;;;;;;;;;13.25;100.00;-25439.47;5032987;28;19920;-80
2022/07/15 02:31:24;;;;;;;;;;;;;;;13.11;100.00;-25435.53;5051480;28;19901;-80
2022/07/15 02:33:50;;;;;;;;;;;;;;;13.17;100.00;-25437.16;5038887;28;19914;-81
2022/07/15 02:36:15;;;;;;;;;;;;;;;13.20;100.00;-25438.03;5030834;28;19929;-83
2022/07/15 02:38:41;;;;;;;;;;;;;;;13.16;100.00;-25437.00;5030835;28;19917;-82
2022/07/15 02:41:07;;;;;;;;;;;;;;;13.11;100.00;-25435.53;5031390;28;19931;-81
2022/07/15 02:43:36;;;;;;;;;;;;;;;13.13;100.00;-25435.97;5020539;28;19917;-80
2022/07/15 02:46:01;;;;;;;;;;;;;;;13.12;100.00;-25435.84;5034363;28;19972;-81
2022/07/15 02:48:27;;;;;;;;;;;;;;;13.09;100.00;-25434.97;5011596;28;19925;-82
2022/07/15 02:50:53;;;;;;;;;;;;;;;13.10;100.00;-25435.25;5024354;28;19913;-82
2022/07/15 02:53:28;;;;;;;;;;;;;;;12.99;100.00;-25432.03;5025662;28;19960;-81
2022/07/15 02:55:53;;;;;;;;;;;;;;;13.04;100.00;-25433.50;5012307;28;19917;-81
2022/07/15 02:58:19;;;;;;;;;;;;;;;13.05;100.00;-25433.78;5010677;28;19919;-81
2022/07/15 03:00:45;;;;;;;;;;;;;;;12.96;100.00;-25431.16;5018401;28;20373;-81
2022/07/15 03:03:16;;;;;;;;;;;;;;;13.01;100.00;-25432.78;5008743;28;19921;-81
2022/07/15 03:05:41;;;;;;;;;;;;;;;13.04;100.00;-25433.50;5021587;28;19944;-82
2022/07/15 03:08:07;;;;;;;;;;;;;;;12.98;100.00;-25431.75;5026585;28;19936;-82
2022/07/15 03:10:32;;;;;;;;;;;;;;;12.98;100.00;-25431.88;5023043;28;20396;-81
2022/07/15 03:12:57;;;;;;;;;;;;;;;13.02;100.00;-25433.06;5004684;28;19976;-82
2022/07/15 03:15:23;;;;;;;;;;;;;;;13.07;100.00;-25434.38;5017890;28;19917;-81
2022/07/15 03:17:48;;;;;;;;;;;;;;;13.06;100.00;-25434.09;5042513;28;19995;-81
2022/07/15 03:20:15;;;;;;;;;;;;;;;12.98;100.00;-25431.88;5027554;28;20498;-83
2022/07/15 03:22:42;;;;;;;;;;;;;;;12.97;100.00;-25431.44;5023325;28;20111;-83
2022/07/15 03:25:07;;;;;;;;;;;;;;;12.99;100.00;-25432.03;5043225;28;19980;-83
2022/07/15 03:27:33;;;;;;;;;;;;;;;13.01;100.00;-25432.78;5042963;28;19959;-82
2022/07/15 03:29:59;;;;;;;;;;;;;;;13.07;100.00;-25434.53;5045140;28;19916;-81
2022/07/15 03:32:24;;;;;;;;;;;;;;;13.06;100.00;-25434.09;5017844;28;19960;-80
2022/07/15 03:34:50;;;;;;;;;;;;;;;13.05;100.00;-25433.78;5045233;28;20012;-80
2022/07/15 03:37:16;;;;;;;;;;;;;;;13.05;100.00;-25433.94;5046793;28;19984;-81
2022/07/15 03:39:42;;;;;;;;;;;;;;;13.09;100.00;-25435.09;5017714;28;19921;-81
2022/07/15 03:42:07;;;;;;;;;;;;;;;13.17;100.00;-25437.28;5021596;28;19988;-82
2022/07/15 03:44:34;;;;;;;;;;;;;;;13.19;100.00;-25437.88;5054756;28;20313;-82
2022/07/15 03:46:59;;;;;;;;;;;;;;;13.20;100.00;-25438.16;5037382;28;19913;-81
2022/07/15 03:49:24;;;;;;;;;;;;;;;13.19;100.00;-25437.88;5028498;28;20388;-81
2022/07/15 03:51:49;;;;;;;;;;;;;;;13.26;100.00;-25439.78;5038044;28;19961;-81
2022/07/15 03:54:15;;;;;;;;;;;;;;;13.31;100.00;-25441.22;5036591;28;19936;-82
2022/07/15 03:56:40;;;;;;;;;;;;;;;13.38;100.00;-25443.16;5019779;28;20354;-83
2022/07/15 03:59:06;;;;;;;;;;;;;;;13.47;100.00;-25445.78;5017682;28;19920;-82
2022/07/15 04:01:32;;;;;;;;;;;;;;;13.48;100.00;-25446.06;5053110;28;19956;-81
2022/07/15 04:03:57;;;;;;;;;;;;;;;13.50;100.00;-25446.50;5020945;28;20023;-80
2022/07/15 04:06:24;;;;;;;;;;;;;;;13.63;100.00;-25450.44;5020317;28;19914;-81
2022/07/15 04:08:49;;;;;;;;;;;;;;;13.71;100.00;-25452.47;5016164;28;19949;-81
2022/07/15 04:11:20;;;;;;;;;;;;;;;13.80;100.00;-25455.09;5012475;28;19920;-80
2022/07/15 04:13:47;;;;;;;;;;;;;;;13.82;100.00;-25455.69;5028449;28;19921;-82
2022/07/15 04:16:13;;;;;;;;;;;;;;;15.12;100.00;-25492.56;5022156;28;20141;-81
2022/07/15 04:18:38;;;;;;;;;;;;;;;16.37;100.00;-25527.75;5029132;28;19917;-81
2022/07/15 04:21:04;;;;;;;;;;;;;;;17.08;100.00;-14649.00;5038131;28;19960;-82
2022/07/15 04:23:44;;;;;;;;;;;;;;;17.96;100.00;6593.06;5030654;28;19964;-82
2022/07/15 04:26:09;;;;;;;;;;;;;;;19.14;100.00;44836.66;5017513;28;19983;-81
2022/07/15 04:28:35;;;;;;;;;;;;;;;19.61;100.00;121802.97;5017549;28;19917;-82
2022/07/15 04:31:00;;;;;;;;;;;;;;;20.62;100.00;147908.31;5027909;28;19956;-80
2022/07/15 04:33:28;;;;;;;;;;;;;;;21.22;100.00;148057.00;5035167;28;19919;-80
2022/07/15 04:35:54;;;;;;;;;;;;;;;21.38;100.00;148095.47;5035474;28;19920;-81
2022/07/15 04:38:20;;;;;;;;;;;;;;;22.11;100.00;148277.59;5035178;28;19926;-81
2022/07/15 04:40:45;;;;;;;;;;;;;;;22.01;100.00;148254.50;5033144;28;19917;-81
2022/07/15 04:43:11;;;;;;;;;;;;;;;22.00;100.00;148251.97;5034710;28;19936;-80
2022/07/15 04:45:37;;;;;;;;;;;;;;;23.16;100.00;148540.72;5021927;28;20323;-79
2022/07/15 04:48:02;;;;;;;;;;;;;;;23.22;100.00;148554.84;5015570;28;19914;-79
2022/07/15 04:50:45;;;;;;;;;;;;;;;23.27;100.00;148567.66;5015594;28;20010;-79
2022/07/15 04:53:15;;;;;;;;;;;;;;;23.99;100.00;148748.75;5015427;28;19921;-80
2022/07/15 04:55:40;;;;;;;;;;;;;;;24.41;100.00;148852.78;5016179;28;19914;-79
2022/07/15 04:58:05;;;;;;;;;;;;;;;24.70;100.00;148924.75;5020190;28;19913;-79
2022/07/15 05:00:30;;;;;;;;;;;;;;;24.12;100.00;148779.56;5033686;28;19924;-79
2022/07/15 05:02:57;;;;;;;;;;;;;;;24.92;100.00;148980.00;5020629;28;19959;-80
2022/07/15 05:05:22;;;;;;;;;;;;;;;24.89;100.00;148972.28;5032985;28;19917;-80
2022/07/15 05:07:47;;;;;;;;;;;;;;;23.77;100.00;148692.19;5021709;28;19967;-78
2022/07/15 05:10:12;;;;;;;;;;;;;;;24.57;100.00;148891.34;5014414;28;19974;-80
2022/07/15 05:12:40;;;;;;;;;;;;;;;24.20;100.00;148801.38;5047602;28;20412;-80
2022/07/15 05:15:06;;;;;;;;;;;;;;;24.16;100.00;148791.13;5024987;28;20323;-79
2022/07/15 05:17:31;;;;;;;;;;;;;;;24.43;100.00;148856.66;5036846;28;19916;-79
2022/07/15 05:19:56;;;;;;;;;;;;;;;23.76;100.00;148689.66;5054730;28;19912;-79
2022/07/15 05:22:22;;;;;;;;;;;;;;;22.72;100.00;148431.59;5054731;28;19916;-80
2022/07/15 05:24:47;;;;;;;;;;;;;;;22.06;100.00;148266.03;5031472;28;19968;-80
2022/07/15 05:27:12;;;;;;;;;;;;;;;21.10;100.00;148027.53;5018762;28;19920;-80
2022/07/15 05:29:38;;;;;;;;;;;;;;;20.51;100.00;147880.13;5018438;28;19924;-79
2022/07/15 05:32:03;;;;;;;;;;;;;;;20.04;100.00;147762.25;5036286;28;19932;-79
2022/07/15 05:34:32;;;;;;;;;;;;;;;19.67;100.00;147671.31;5018628;28;20369;-80
2022/07/15 05:36:57;;;;;;;;;;;;;;;18.98;100.00;147498.47;5018030;28;19964;-79
2022/07/15 05:39:34;;;;;;;;;;;;;;;18.83;100.00;147461.28;5038968;28;19913;-79
2022/07/15 05:41:59;;;;;;;;;;;;;;;18.54;100.00;147389.66;5022092;28;19917;-79
2022/07/15 05:44:27;;;;;;;;;;;;;;;18.63;100.00;147411.44;5020841;28;20323;-79
2022/07/15 05:46:53;;;;;;;;;;;;;;;18.58;100.00;147399.94;5038380;28;19939;-79
2022/07/15 05:49:18;;;;;;;;;;;;;;;18.57;100.00;147396.09;5032367;28;19913;-79
2022/07/15 05:51:44;;;;;;;;;;;;;;;18.30;100.00;147329.53;5037942;28;19920;-80
2022/07/15 05:54:13;;;;;;;;;;;;;;;18.12;100.00;147286.03;5056709;28;20015;-79
2022/07/15 05:56:38;;;;;;;;;;;;;;;18.39;100.00;147352.56;5039059;28;19921;-77
2022/07/15 05:59:03;;;;;;;;;;;;;;;18.52;100.00;147384.56;5040621;28;19984;-79
2022/07/15 06:01:29;;;;;;;;;;;;;;;18.32;100.00;147333.34;5019379;28;20358;-79
2022/07/15 06:03:56;;;;;;;;;;;;;;;18.40;100.00;147355.13;5017433;28;19983;-79
2022/07/15 06:06:21;;;;;;;;;;;;;;;18.47;100.00;147371.75;5035924;28;19920;-78
2022/07/15 06:08:46;;;;;;;;;;;;;;;18.61;100.00;147407.59;5028438;28;19916;-80
2022/07/15 06:11:12;;;;;;;;;;;;;;;18.34;100.00;147338.50;5036192;28;19917;-79
2022/07/15 06:13:42;;;;;;;;;;;;;;;18.55;100.00;147390.94;5019981;28;19913;-79
2022/07/15 06:16:08;;;;;;;;;;;;;;;18.69;100.00;147425.47;5017545;28;19943;-79
2022/07/15 06:18:33;;;;;;;;;;;;;;;18.57;100.00;147397.34;5018422;28;19913;-80
2022/07/15 06:20:58;;;;;;;;;;;;;;;18.58;100.00;147399.94;5020281;28;19917;-80
2022/07/15 06:23:27;;;;;;;;;;;;;;;18.27;100.00;147321.84;5022200;28;19937;-80
2022/07/15 06:25:55;;;;;;;;;;;;;;;18.40;100.00;147353.84;5022637;28;20346;-80
2022/07/15 06:28:21;;;;;;;;;;;;;;;18.53;100.00;147387.09;5018981;28;19976;-80
2022/07/15 06:30:46;;;;;;;;;;;;;;;18.39;100.00;147351.28;5021753;28;20010;-79
2022/07/15 06:33:11;;;;;;;;;;;;;;;18.63;100.00;147411.44;5020811;28;19916;-79
2022/07/15 06:35:38;;;;;;;;;;;;;;;18.80;100.00;147454.94;5022338;28;20008;-78
2022/07/15 06:38:03;;;;;;;;;;;;;;;18.84;100.00;147465.19;5035807;28;19913;-81
2022/07/15 06:40:28;;;;;;;;;;;;;;;19.05;100.00;147515.09;5020443;28;19920;-79
2022/07/15 06:42:56;;;;;;;;;;;;;;;18.91;100.00;147481.84;5020105;28;19949;-80
2022/07/15 06:45:21;;;;;;;;;;;;;;;18.96;100.00;147494.63;5024833;28;19963;-79
2022/07/15 06:47:46;;;;;;;;;;;;;;;18.79;100.00;147452.34;5037594;28;20412;-79
2022/07/15 06:50:12;;;;;;;;;;;;;;;18.84;100.00;147463.88;5018888;28;20003;-79
2022/07/15 06:52:41;;;;;;;;;;;;;;;18.93;100.00;147486.97;5018682;28;20000;-79
2022/07/15 06:55:08;;;;;;;;;;;;;;;19.81;100.00;147705.94;5034840;28;19963;-80
2022/07/15 06:57:33;;;;;;;;;;;;;;;19.63;100.00;147661.06;5018016;28;19921;-79
2022/07/15 07:00:00;;;;;;;;;;;;;;;20.02;100.00;147757.16;5017079;28;20611;-80
2022/07/15 07:02:26;;;;;;;;;;;;;;;19.88;100.00;147723.84;5016654;28;20612;-79
2022/07/15 07:04:51;;;;;;;;;;;;;;;20.17;100.00;147794.31;5034315;28;19920;-79
2022/07/15 07:07:16;;;;;;;;;;;;;;;20.02;100.00;147757.16;5033604;28;20396;-82
2022/07/15 07:09:41;;;;;;;;;;;;;;;19.88;100.00;147722.56;5019156;28;19916;-81
2022/07/15 07:12:07;;;;;;;;;;;;;;;19.36;100.00;147593.22;5019567;28;19935;-81
2022/07/15 07:14:32;;;;;;;;;;;;;;;19.28;100.00;147572.72;5023934;28;20353;-81
2022/07/15 07:16:57;;;;;;;;;;;;;;;19.49;100.00;147626.47;5042815;28;19913;-82
2022/07/15 07:19:22;;;;;;;;;;;;;;;19.63;100.00;147661.06;5025218;28;19927;-81
2022/07/15 07:21:48;;;;;;;;;;;;;;;19.74;100.00;147689.22;5026353;28;20389;-81
2022/07/15 07:24:14;;;;;;;;;;;;;;;20.07;100.00;147771.25;5045214;28;19917;-80
2022/07/15 07:26:40;;;;;;;;;;;;;;;21.08;100.00;148022.38;5023793;28;19914;-81
2022/07/15 07:29:05;;;;;;;;;;;;;;;22.02;100.00;148255.81;5044038;28;19939;-82
2022/07/15 07:31:30;;;;;;;;;;;;;;;22.08;100.00;148269.88;5031485;28;19901;-80
2022/07/15 07:34:00;;;;;;;;;;;;;;;21.81;100.00;148203.22;5027759;28;19916;-81
2022/07/15 07:36:25;;;;;;;;;;;;;;;21.82;100.00;148207.06;5047446;28;19936;-79
2022/07/15 07:38:51;;;;;;;;;;;;;;;21.79;100.00;148199.38;5026690;28;19913;-81
2022/07/15 07:41:17;;;;;;;;;;;;;;;21.11;100.00;148028.81;5024524;28;19913;-81
2022/07/15 07:43:42;;;;;;;;;;;;;;;22.24;100.00;148310.94;5023843;28;19939;-82
2022/07/15 07:46:07;;;;;;;;;;;;;;;23.78;100.00;148694.75;5024735;28;20380;-80
2022/07/15 07:48:32;;;;;;;;;;;;;;;24.27;100.00;148816.78;5020324;28;19920;-80
2022/07/15 07:50:58;;;;;;;;;;;;;;;23.74;100.00;148684.47;5041388;28;20213;-81
2022/07/15 07:53:24;;;;;;;;;;;;;;;24.37;100.00;148843.75;5035673;28;19913;-80
2022/07/15 07:55:50;;;;;;;;;;;;;;;24.90;100.00;148976.13;5040181;28;19901;-79
2022/07/15 07:58:16;;;;;;;;;;;;;;;24.37;100.00;148843.75;5019025;28;19939;-81
2022/07/15 08:00:42;;;;;;;;;;;;;;;24.42;100.00;148854.06;5034541;28;19929;-80
2022/07/15 08:03:08;;;;;;;;;;;;;;;25.40;100.00;149099.56;5034726;28;19958;-80
2022/07/15 08:05:33;;;;;;;;;;;;;;;25.15;100.00;149037.81;5038464;28;19913;-81
2022/07/15 08:08:08;;;;;;;;;;;;;;;24.61;100.00;148902.94;5040157;28;19954;-79
2022/07/15 08:10:33;;;;;;;;;;;;;;;24.60;100.00;148900.34;5034295;28;19967;-79
2022/07/15 08:13:04;;;;;;;;;;;;;;;25.27;100.00;149067.41;5020819;28;19913;-80
2022/07/15 08:15:29;;;;;;;;;;;;;;;26.32;100.00;149331.06;5037457;28;19929;-79
2022/07/15 08:17:54;;;;;;;;;;;;;;;25.97;100.00;149242.28;5040783;28;20343;-80
2022/07/15 08:20:19;;;;;;;;;;;;;;;25.13;100.00;149032.69;5034135;28;20354;-80
2022/07/15 08:22:46;;;;;;;;;;;;;;;24.49;100.00;148873.31;5018588;28;19913;-81
2022/07/15 08:25:11;;;;;;;;;;;;;;;25.78;100.00;149195.97;5034818;28;19913;-81
2022/07/15 08:27:36;;;;;;;;;;;;;;;26.03;100.00;149257.75;5023860;28;19923;-81
2022/07/15 08:30:02;;;;;;;;;;;;;;;25.74;100.00;149185.69;5018191;28;19924;-81
2022/07/15 08:32:28;;;;;;;;;;;;;;;25.37;100.00;149093.16;5036191;28;19935;-80
2022/07/15 08:34:54;;;;;;;;;;;;;;;25.74;100.00;149184.41;5037216;28;19913;-80
2022/07/15 08:37:19;;;;;;;;;;;;;;;26.67;100.00;149417.28;5016630;28;19996;-80
2022/07/15 08:39:44;;;;;;;;;;;;;;;26.41;100.00;149352.88;5032392;28;19948;-79
2022/07/15 08:42:10;;;;;;;;;;;;;;;25.43;100.00;149108.59;5032396;28;20043;-81
2022/07/15 08:44:35;;;;;;;;;;;;;;;25.99;100.00;149247.44;5015974;28;20484;-80
2022/07/15 08:47:05;;;;;;;;;;;;;;;25.76;100.00;149189.53;5031737;28;19915;-81
2022/07/15 08:49:31;;;;;;;;;;;;;;;26.09;100.00;149273.19;5016233;28;19928;-81
2022/07/15 08:51:59;;;;;;;;;;;;;;;26.64;100.00;149409.50;5032670;28;19908;-81
2022/07/15 08:54:24;;;;;;;;;;;;;;;27.20;100.00;149549.78;5015144;28;20004;-80
2022/07/15 08:56:50;;;;;;;;;;;;;;;26.63;100.00;149406.91;5015236;28;20373;-80
2022/07/15 08:59:17;;;;;;;;;;;;;;;24.85;100.00;148962.03;5035825;28;20064;-78
2022/07/15 09:01:43;;;;;;;;;;;;;;;24.06;100.00;148765.44;5018711;28;20427;-80
2022/07/15 09:04:13;;;;;;;;;;;;;;;22.73;100.00;148432.84;5018542;28;19924;-80
2022/07/15 09:06:40;;;;;;;;;;;;;;;23.83;100.00;148707.59;5018537;28;20003;-81
2022/07/15 09:09:17;;;;;;;;;;;;;;;23.95;100.00;148738.47;5018274;28;20004;-80
2022/07/15 09:11:43;;;;;;;;;;;;;;;24.18;100.00;148796.25;5018381;28;19917;-79
2022/07/15 09:14:11;;;;;;;;;;;;;;;23.96;100.00;148739.78;5017669;28;19913;-81
2022/07/15 09:16:36;;;;;;;;;;;;;;;23.57;100.00;148643.41;5018576;28;19923;-82
2022/07/15 09:19:02;;;;;;;;;;;;;;;23.17;100.00;148543.28;5017919;28;19956;-80
2022/07/15 09:21:27;;;;;;;;;;;;;;;23.32;100.00;148580.53;5035362;28;19964;-81
2022/07/15 09:23:53;;;;;;;;;;;;;;;22.69;100.00;148423.88;5034847;28;19913;-80
2022/07/15 09:26:28;;;;;;;;;;;;;;;22.17;100.00;148294.28;5018632;28;19914;-81
2022/07/15 09:28:54;;;;;;;;;;;;;;;21.98;100.00;148246.81;5017965;28;19924;-80
2022/07/15 09:34:31;;;;;;;;;;;;;;;22.62;100.00;148404.63;5036076;28;19924;-78
2022/07/15 09:36:57;;;;;;;;;;;;;;;23.01;100.00;148502.16;5035438;28;19913;-79
2022/07/15 09:39:23;;;;;;;;;;;;;;;23.68;100.00;148670.38;5035417;28;19932;-78
2022/07/15 09:41:49;;;;;;;;;;;;;;;24.41;100.00;148851.47;5015591;28;19913;-80
2022/07/15 09:44:18;;;;;;;;;;;;;;;24.98;100.00;148994.13;5032772;28;20028;-78
2022/07/15 09:46:49;;;;;;;;;;;;;;;25.51;100.00;149126.56;5017783;28;19913;-78
2022/07/15 09:49:14;;;;;;;;;;;;;;;24.86;100.00;148964.56;5017420;28;20325;-79
2022/07/15 09:51:50;;;;;;;;;;;;;;;24.98;100.00;148995.41;5035365;28;19919;-79
2022/07/15 09:54:19;;;;;;;;;;;;;;;25.17;100.00;149043.00;5016963;28;19974;-78
2022/07/15 09:56:45;;;;;;;;;;;;;;;24.36;100.00;148839.91;5035335;28;20254;-78
2022/07/15 09:59:10;;;;;;;;;;;;;;;23.87;100.00;148716.66;5017246;28;19940;-78
2022/07/15 10:01:36;;;;;;;;;;;;;;;22.77;100.00;148443.13;5017551;28;20276;-76
2022/07/15 10:04:10;;;;;;;;;;;;;;;22.72;100.00;148430.31;5034679;28;20020;-77
2022/07/15 10:06:37;;;;;;;;;;;;;;;23.00;100.00;148500.88;5017494;28;19917;-76
2022/07/15 10:09:03;;;;;;;;;;;;;;;22.89;100.00;148472.66;5016847;28;19921;-79
2022/07/15 10:11:30;;;;;;;;;;;;;;;22.38;100.00;148345.63;5017183;28;20375;-76
2022/07/15 10:14:17;;;;;;;;;;;;;;;22.12;100.00;148280.16;5017078;28;19913;-78
2022/07/15 10:16:58;;;;;;;;;;;;;;;22.55;100.00;148387.97;5016777;28;19921;-77
2022/07/15 10:19:30;;;;;;;;;;;;;;;22.09;100.00;148273.75;5035097;28;19939;-79
2022/07/15 10:22:14;;;;;;;;;;;;;;;21.56;100.00;148140.41;5017047;28;20403;-78
2022/07/15 10:24:48;;;;;;;;;;;;;;;21.07;100.00;148019.84;5016816;28;19920;-78
2022/07/15 10:27:22;;;;;;;;;;;;;;;21.62;100.00;148155.78;5034508;28;19982;-76
2022/07/15 10:29:49;;;;;;;;;;;;;;;22.03;100.00;148259.66;5034832;28;19909;-77
2022/07/15 10:32:14;;;;;;;;;;;;;;;22.94;100.00;148486.75;5032842;28;19923;-78
2022/07/15 10:34:42;;;;;;;;;;;;;;;23.00;100.00;148500.88;5035090;28;20003;-78
2022/07/15 10:37:10;;;;;;;;;;;;;;;23.09;100.00;148522.78;5034472;28;19913;-78
2022/07/15 10:39:55;;;;;;;;;;;;;;;23.65;100.00;148663.94;5033093;28;19919;-79
2022/07/15 10:42:20;;;;;;;;;;;;;;;23.85;100.00;148712.81;5016678;28;19936;-79
2022/07/15 10:44:59;;;;;;;;;;;;;;;23.21;100.00;148553.56;5016160;28;20358;-78
2022/07/15 10:47:24;;;;;;;;;;;;;;;22.72;100.00;148430.31;5016255;28;20419;-79
2022/07/15 10:49:50;;;;;;;;;;;;;;;22.89;100.00;148473.94;5032914;28;19913;-78
2022/07/15 10:52:15;;;;;;;;;;;;;;;23.28;100.00;148571.50;5033919;28;19956;-77
2022/07/15 10:54:42;;;;;;;;;;;;;;;23.56;100.00;148639.56;5016438;28;19975;-77
2022/07/15 10:57:08;;;;;;;;;;;;;;;23.83;100.00;148708.91;5015989;28;20011;-78
2022/07/15 10:59:37;;;;;;;;;;;;;;;23.57;100.00;148642.09;5016250;28;20335;-80
2022/07/15 11:02:03;;;;;;;;;;;;;;;23.31;100.00;148577.94;5016331;28;19917;-78
2022/07/15 11:04:31;;;;;;;;;;;;;;;22.45;100.00;148362.28;5015953;28;19939;-79
2022/07/15 11:07:11;;;;;;;;;;;;;;;22.55;100.00;148389.25;5015988;28;19920;-80
2022/07/15 11:09:55;;;;;;;;;;;;;;;22.61;100.00;148403.38;5016318;28;19980;-78
2022/07/15 11:12:31;;;;;;;;;;;;;;;22.67;100.00;148418.78;5034192;28;19913;-79
2022/07/15 11:14:56;;;;;;;;;;;;;;;22.81;100.00;148452.09;5033529;28;20286;-79
2022/07/15 11:17:24;;;;;;;;;;;;;;;22.82;100.00;148454.69;5016764;28;19928;-77
2022/07/15 11:19:51;;;;;;;;;;;;;;;23.58;100.00;148644.69;5016226;28;19999;-80
2022/07/15 11:22:18;;;;;;;;;;;;;;;23.96;100.00;148741.03;5032482;28;19913;-79
2022/07/15 11:24:49;;;;;;;;;;;;;;;23.77;100.00;148692.19;5016143;28;19976;-79
2022/07/15 11:27:14;;;;;;;;;;;;;;;24.37;100.00;148843.75;5015324;28;20074;-76
2022/07/15 11:29:40;;;;;;;;;;;;;;;24.52;100.00;148879.78;5016040;28;19963;-79
2022/07/15 11:32:07;;;;;;;;;;;;;;;24.51;100.00;148877.19;5015235;28;20365;-80
2022/07/15 11:34:47;;;;;;;;;;;;;;;24.28;100.00;148820.66;5015503;28;19940;-79
2022/07/15 11:37:18;;;;;;;;;;;;;;;24.22;100.00;148803.97;5032023;28;19960;-79
2022/07/15 11:39:43;;;;;;;;;;;;;;;24.09;100.00;148773.13;5015731;28;19919;-77
2022/07/15 11:45:02;;;;;;;;;;;;;;;23.38;100.00;148595.88;5033450;28;19920;-81
2022/07/15 11:47:27;;;;;;;;;;;;;;;23.14;100.00;148535.59;5033331;28;20011;-81
2022/07/15 11:49:58;;;;;;;;;;;;;;;22.34;100.00;148335.34;5033140;28;19920;-81
2022/07/15 11:52:24;;;;;;;;;;;;;;;22.87;100.00;148467.50;5016152;28;19913;-81
2022/07/15 11:54:50;;;;;;;;;;;;;;;22.97;100.00;148493.19;5015541;28;19919;-82
2022/07/15 11:57:16;;;;;;;;;;;;;;;23.06;100.00;148516.28;5015136;28;19972;-81
2022/07/15 11:59:50;;;;;;;;;;;;;;;23.72;100.00;148680.63;5015630;28;19913;-78
2022/07/15 12:02:15;;;;;;;;;;;;;;;24.09;100.00;148773.13;5015287;28;19920;-81
2022/07/15 12:04:41;;;;;;;;;;;;;;;23.99;100.00;148747.47;5015732;28;19913;-80
2022/07/15 12:07:07;;;;;;;;;;;;;;;23.99;100.00;148747.47;5033305;28;19940;-81
2022/07/15 12:09:51;;;;;;;;;;;;;;;23.71;100.00;148676.78;5015531;28;19917;-81
2022/07/15 12:12:16;;;;;;;;;;;;;;;23.67;100.00;148669.06;5032194;28;19920;-78
2022/07/15 12:14:44;;;;;;;;;;;;;;;23.38;100.00;148594.63;5013558;28;19917;-78
2022/07/15 12:17:10;;;;;;;;;;;;;;;23.37;100.00;148593.34;5013438;28;19913;-77
2022/07/15 12:19:36;;;;;;;;;;;;;;;23.75;100.00;148688.34;5031855;28;19913;-79
2022/07/15 12:22:09;;;;;;;;;;;;;;;23.67;100.00;148669.06;5031685;28;20055;-79
2022/07/15 12:24:47;;;;;;;;;;;;;;;24.18;100.00;148794.97;5015361;28;19919;-78
2022/07/15 12:27:13;;;;;;;;;;;;;;;24.52;100.00;148879.78;5015092;28;19932;-77
2022/07/15 12:29:39;;;;;;;;;;;;;;;24.33;100.00;148832.19;5014860;28;19919;-77
2022/07/15 12:32:05;;;;;;;;;;;;;;;23.80;100.00;148699.88;5014827;28;19920;-75
2022/07/15 12:34:50;;;;;;;;;;;;;;;23.43;100.00;148607.44;5019019;28;19913;-79
2022/07/15 12:37:16;;;;;;;;;;;;;;;23.66;100.00;148666.53;5018523;28;19913;-80